Time;durP1;ratioP1;P1;durP2;ratioP2;P2;SDS_P1;SDS_P2;PMS_P1;PMS_P2;Temp;Humidity;BMP_temperature;BMP_pressure;BME280_temperature;BME280_humidity;BME280_pressure;Samples;Min_cycle;Max_cycle;Signal;HPM_P1;HPM_P2
2023/03/27 00:04:07;;;;;;;5.03;1.27;;;;;;;1.82;100.00;101232.63;10546451;28;20032;-94
2023/03/27 00:09:08;;;;;;;6.93;1.60;;;;;;;1.53;100.00;101223.44;10557808;28;20028;-96
2023/03/27 00:14:08;;;;;;;10.70;2.13;;;;;;;1.75;100.00;101250.69;10499113;28;20056;-88
2023/03/27 00:19:09;;;;;;;4.88;1.10;;;;;;;1.68;100.00;101247.88;10509328;28;20060;-92
2023/03/27 00:24:10;;;;;;;5.88;1.30;;;;;;;1.67;100.00;101248.88;10507255;28;20085;-93
2023/03/27 00:29:12;;;;;;;7.63;1.02;;;;;;;1.75;100.00;101265.09;10541898;27;20032;-94
2023/03/27 00:34:12;;;;;;;7.57;1.20;;;;;;;1.74;100.00;101258.00;10568451;28;20036;-95
2023/03/27 00:39:13;;;;;;;11.43;1.77;;;;;;;1.91;100.00;101261.34;10568743;28;20032;-94
2023/03/27 00:44:22;;;;;;;7.70;1.10;;;;;;;1.99;100.00;101266.69;10569103;28;20059;-93
2023/03/27 00:49:25;;;;;;;5.05;1.10;;;;;;;1.90;100.00;101248.81;10570979;27;20035;-95
2023/03/27 00:54:28;;;;;;;4.40;1.60;;;;;;;1.74;100.00;101252.56;10578341;27;20044;-95
2023/03/27 00:59:30;;;;;;;6.55;1.05;;;;;;;1.88;100.00;101288.03;10565036;28;20035;-95
2023/03/27 01:04:34;;;;;;;4.63;1.10;;;;;;;1.69;100.00;101281.28;10567867;27;20058;-93
2023/03/27 01:09:35;;;;;;;5.75;1.08;;;;;;;1.79;100.00;101301.69;10550558;27;20039;-92
2023/03/27 01:14:35;;;;;;;7.53;1.27;;;;;;;1.79;100.00;101314.44;10588921;27;20080;-93
2023/03/27 01:19:54;;;;;;;6.18;1.38;;;;;;;1.73;100.00;101315.16;10583168;27;20056;-94
2023/03/27 01:25:29;;;;;;;6.35;1.35;;;;;;;1.60;100.00;101315.81;10585022;27;20028;-92
2023/03/27 01:30:31;;;;;;;5.63;1.45;;;;;;;1.50;100.00;101321.50;10553885;27;20051;-95
2023/03/27 01:36:10;;;;;;;5.50;1.40;;;;;;;1.50;100.00;101326.06;10552218;28;20079;-94
2023/03/27 01:41:15;;;;;;;9.48;1.27;;;;;;;1.48;100.00;101322.72;10479131;28;20432;-94
2023/03/27 01:46:22;;;;;;;9.07;2.20;;;;;;;1.46;100.00;101314.75;10503090;28;20097;-93
2023/03/27 01:51:53;;;;;;;7.05;1.05;;;;;;;1.49;100.00;101329.81;10527750;28;20093;-94
2023/03/27 01:57:00;;;;;;;4.25;1.02;;;;;;;1.39;100.00;101338.22;10584069;28;20028;-93
2023/03/27 02:02:12;;;;;;;6.65;1.67;;;;;;;1.31;100.00;101328.28;10575097;28;20043;-91
2023/03/27 02:07:15;;;;;;;7.20;1.10;;;;;;;1.28;100.00;101344.94;10539206;28;20032;-95
2023/03/27 02:12:28;;;;;;;6.25;1.00;;;;;;;1.28;100.00;101323.22;10569143;27;20028;-94
2023/03/27 02:17:32;;;;;;;6.85;1.00;;;;;;;1.31;100.00;101333.69;10575388;27;20035;-96
2023/03/27 02:22:33;;;;;;;14.02;1.98;;;;;;;1.36;100.00;101331.25;10577799;27;20042;-95
2023/03/27 02:27:41;;;;;;;7.15;1.17;;;;;;;1.54;100.00;101341.81;10574316;27;20047;-93
2023/03/27 02:32:48;;;;;;;11.02;2.42;;;;;;;1.76;100.00;101386.22;10569082;27;20052;-93
2023/03/27 02:38:07;;;;;;;4.95;1.20;;;;;;;1.88;100.00;101399.34;10615332;27;20040;-94
2023/03/27 02:43:17;;;;;;;6.05;1.27;;;;;;;1.52;100.00;101351.16;10511606;28;20046;-93
2023/03/27 02:48:33;;;;;;;8.07;1.40;;;;;;;1.54;100.00;101370.81;10549449;28;20048;-94
2023/03/27 02:53:39;;;;;;;10.45;1.33;;;;;;;1.34;100.00;101346.88;10507707;28;20065;-95
2023/03/27 02:58:48;;;;;;;;;;;;;;;1.48;100.00;101382.41;10519238;28;20032;-94
2023/03/27 03:03:59;;;;;;;9.95;1.83;;;;;;;1.37;100.00;101380.97;10550854;28;19951;-92
2023/03/27 03:09:00;;;;;;;7.00;2.10;;;;;;;1.12;100.00;101372.16;10582426;27;20050;-93
2023/03/27 03:14:01;;;;;;;8.38;1.88;;;;;;;1.07;100.00;101385.41;10575266;27;20034;-92
2023/03/27 03:19:02;;;;;;;4.80;1.95;;;;;;;1.09;100.00;101405.06;10573562;27;20418;-94
2023/03/27 03:24:02;;;;;;;4.45;1.10;;;;;;;1.04;100.00;101412.91;10574780;27;20109;-93
2023/03/27 03:29:03;;;;;;;9.32;1.20;;;;;;;0.96;100.00;101398.34;10591916;27;20426;-94
2023/03/27 03:34:03;;;;;;;4.85;1.45;;;;;;;0.87;100.00;101407.56;10586840;27;20040;-94
2023/03/27 03:39:04;;;;;;;6.80;0.98;;;;;;;0.85;100.00;101414.16;10505540;28;20041;-91
2023/03/27 03:44:05;;;;;;;8.68;1.52;;;;;;;0.93;100.00;101420.41;10489166;28;20052;-94
2023/03/27 03:49:06;;;;;;;6.38;2.00;;;;;;;1.14;100.00;101413.50;10526106;28;20063;-93
2023/03/27 03:54:08;;;;;;;5.07;1.00;;;;;;;1.28;100.00;101433.56;10486444;28;20405;-90
2023/03/27 03:59:09;;;;;;;17.23;1.75;;;;;;;1.05;100.00;101420.00;10516434;28;20040;-94
2023/03/27 04:04:10;;;;;;;8.57;1.65;;;;;;;1.06;100.00;101429.81;10483723;28;20403;-94
2023/03/27 04:09:11;;;;;;;7.97;1.77;;;;;;;1.19;100.00;101454.50;10502303;28;20032;-93
2023/03/27 04:14:12;;;;;;;6.80;1.73;;;;;;;1.36;100.00;101474.22;10528758;28;20091;-93
2023/03/27 04:19:12;;;;;;;17.65;3.25;;;;;;;1.58;100.00;101483.41;10548987;28;20036;-93
2023/03/27 04:24:13;;;;;;;10.20;1.20;;;;;;;1.59;100.00;101471.50;10563003;28;20073;-85
2023/03/27 04:29:13;;;;;;;8.15;1.70;;;;;;;1.46;100.00;101471.28;10558353;28;20023;-89
2023/03/27 04:34:14;;;;;;;18.08;2.72;;;;;;;1.30;100.00;101483.94;10550785;28;20177;-95
2023/03/27 04:39:16;;;;;;;3.20;1.42;;;;;;;1.16;100.00;101492.81;10514890;28;20054;-94
2023/03/27 04:44:16;;;;;;;7.72;1.45;;;;;;;1.00;100.00;101494.56;10524541;28;20134;-94
2023/03/27 04:49:19;;;;;;;9.60;1.75;;;;;;;0.87;100.00;101498.84;10499559;28;20407;-94
2023/03/27 04:54:21;;;;;;;9.40;2.90;;;;;;;0.66;100.00;101480.47;10514582;28;20051;-94
2023/03/27 04:59:22;;;;;;;10.70;2.55;;;;;;;0.72;100.00;101498.75;10525266;28;20035;-94
2023/03/27 05:04:25;;;;;;;10.18;2.20;;;;;;;0.49;100.00;101482.38;10535652;28;20044;-94
2023/03/27 05:09:25;;;;;;;9.07;2.17;;;;;;;0.56;100.00;101505.06;10544848;28;20036;-95
2023/03/27 05:14:26;;;;;;;7.70;1.75;;;;;;;0.55;100.00;101503.38;10538332;28;20117;-92
2023/03/27 05:19:26;;;;;;;7.22;1.42;;;;;;;0.90;100.00;101531.88;10565975;28;20073;-94
2023/03/27 05:24:27;;;;;;;18.30;3.38;;;;;;;1.07;100.00;101539.97;10566011;28;20081;-94
2023/03/27 05:29:28;;;;;;;10.50;2.53;;;;;;;1.28;100.00;101547.50;10587057;28;20040;-94
2023/03/27 05:34:28;;;;;;;11.40;1.60;;;;;;;1.36;100.00;101532.03;10577007;28;20053;-94
2023/03/27 05:39:29;;;;;;;4.82;1.20;;;;;;;1.48;100.00;101529.75;10584767;28;20032;-95
2023/03/27 05:44:30;;;;;;;9.98;1.05;;;;;;;1.44;100.00;101533.84;10569436;28;20032;-93
2023/03/27 05:49:31;;;;;;;8.88;1.42;;;;;;;1.25;100.00;101529.72;10558950;28;20028;-91
2023/03/27 05:54:31;;;;;;;11.07;1.42;;;;;;;1.44;100.00;101573.72;10533556;28;20032;-92
2023/03/27 05:59:32;;;;;;;3.90;1.45;;;;;;;1.40;100.00;101565.91;10543453;28;20086;-95
2023/03/27 06:04:33;;;;;;;7.03;2.75;;;;;;;1.56;100.00;101596.72;10523878;28;20036;-92
2023/03/27 06:09:35;;;;;;;4.88;1.42;;;;;;;1.57;100.00;101579.41;10530406;28;20046;-94
2023/03/27 06:14:35;;;;;;;4.20;1.33;;;;;;;1.53;100.00;101564.50;10569999;28;20035;-93
2023/03/27 06:19:36;;;;;;;9.80;1.27;;;;;;;1.55;100.00;101567.88;10513517;28;20063;-93
2023/03/27 06:24:36;;;;;;;7.57;1.77;;;;;;;1.60;100.00;101570.94;10547829;28;20073;-94
2023/03/27 06:29:36;;;;;;;8.27;0.95;;;;;;;1.97;100.00;101618.22;10562184;28;20040;-91
2023/03/27 06:34:37;;;;;;;3.83;0.90;;;;;;;1.70;100.00;101552.53;10547358;28;20035;-95
2023/03/27 06:39:37;;;;;;;4.35;0.80;;;;;;;2.04;100.00;101621.06;10563312;28;20040;-92
2023/03/27 06:44:38;;;;;;;6.07;1.10;;;;;;;2.16;100.00;101615.03;10549015;28;20099;-95
2023/03/27 06:49:38;;;;;;;3.25;0.88;;;;;;;2.33;100.00;101625.78;10581056;28;20032;-94
2023/03/27 06:54:39;;;;;;;8.63;1.83;;;;;;;2.53;100.00;101626.97;10563105;28;20650;-88
2023/03/27 06:59:40;;;;;;;4.43;1.00;;;;;;;2.76;100.00;101626.94;10567031;27;20043;-94
2023/03/27 07:04:40;;;;;;;4.38;1.08;;;;;;;2.99;100.00;101605.13;10587621;27;20036;-91
2023/03/27 07:09:41;;;;;;;7.88;1.10;;;;;;;3.32;100.00;101626.53;10587102;27;20039;-95
2023/03/27 07:14:42;;;;;;;5.55;0.90;;;;;;;2.79;100.00;101606.69;10569099;27;20052;-95
2023/03/27 07:19:42;;;;;;;6.30;1.38;;;;;;;2.91;100.00;101637.84;10544877;27;20051;-96
2023/03/27 07:24:43;;;;;;;7.45;1.05;;;;;;;3.18;100.00;101649.13;10585322;27;20069;-94
2023/03/27 07:29:43;;;;;;;4.15;0.75;;;;;;;3.62;100.00;101634.69;10562776;27;20506;-94
2023/03/27 07:34:44;;;;;;;5.15;1.00;;;;;;;4.22;100.00;101655.31;10569196;27;20044;-95
2023/03/27 07:39:44;;;;;;;9.85;1.15;;;;;;;3.90;100.00;101633.97;10543117;27;20036;-94
2023/03/27 07:44:45;;;;;;;10.43;1.40;;;;;;;3.73;100.00;101661.41;10590378;27;20057;-89
2023/03/27 07:49:45;;;;;;;6.88;2.42;;;;;;;3.71;100.00;101673.53;10590205;27;20059;-90
2023/03/27 07:54:47;;;;;;;10.93;1.98;;;;;;;3.55;100.00;101674.56;10548653;28;20105;-92
2023/03/27 07:59:48;;;;;;;8.10;1.27;;;;;;;3.45;100.00;101639.47;10546531;28;20135;-93
2023/03/27 08:04:50;;;;;;;6.82;1.10;;;;;;;3.88;100.00;101666.84;10564997;28;20036;-92
2023/03/27 08:09:52;;;;;;;3.45;0.70;;;;;;;4.18;100.00;101653.16;10566774;28;20032;-93
2023/03/27 08:14:53;;;;;;;8.63;1.77;;;;;;;4.16;100.00;101650.63;10548060;27;20035;-94
2023/03/27 08:19:54;;;;;;;6.03;1.00;;;;;;;3.73;100.00;101609.69;10583620;27;20028;-93
2023/03/27 08:24:54;;;;;;;3.40;0.77;;;;;;;4.19;100.00;101693.81;10568299;27;20106;-93
2023/03/27 08:29:54;;;;;;;3.20;0.90;;;;;;;4.19;100.00;101682.94;10567049;27;20089;-91
2023/03/27 08:34:55;;;;;;;5.53;1.08;;;;;;;4.24;100.00;101672.31;10586304;27;20058;-92
2023/03/27 08:39:57;;;;;;;3.05;0.85;;;;;;;4.25;100.00;101676.72;10550482;27;20046;-92
2023/03/27 08:44:58;;;;;;;5.95;1.20;;;;;;;4.04;100.00;101614.00;10581517;27;20036;-94
2023/03/27 08:49:58;;;;;;;6.53;1.55;;;;;;;4.68;100.00;101703.16;10581315;27;20039;-93
2023/03/27 08:55:17;;;;;;;4.90;0.80;;;;;;;4.69;100.00;101704.00;10572577;27;20043;-96
2023/03/27 09:00:25;;;;;;;7.57;0.73;;;;;;;4.86;100.00;101705.44;10559093;27;20058;-94
2023/03/27 09:05:31;;;;;;;6.85;1.17;;;;;;;5.20;100.00;101709.28;10591580;28;20494;-93
2023/03/27 09:10:35;;;;;;;7.90;0.90;;;;;;;5.49;100.00;101715.56;10586426;27;20415;-94
2023/03/27 09:15:39;;;;;;;10.27;3.03;;;;;;;6.04;100.00;101686.47;10575723;27;20031;-92
2023/03/27 09:20:44;;;;;;;7.22;1.20;;;;;;;6.16;100.00;101714.91;10573311;27;20069;-91
2023/03/27 09:25:55;;;;;;;8.18;1.80;;;;;;;5.13;100.00;101752.06;10545353;27;20502;-92
2023/03/27 09:30:56;;;;;;;6.22;1.45;;;;;;;3.83;100.00;101683.75;10539286;27;20032;-92
2023/03/27 09:35:57;;;;;;;5.63;1.00;;;;;;;5.13;100.00;101743.88;10570001;28;20095;-95
2023/03/27 09:41:00;;;;;;;7.72;1.02;;;;;;;5.29;100.00;101721.72;10542516;27;20060;-90
2023/03/27 09:46:01;;;;;;;3.30;0.80;;;;;;;5.77;100.00;101746.44;10551679;28;20043;-92
2023/03/27 09:51:01;;;;;;;5.85;0.93;;;;;;;5.61;100.00;101744.03;10588625;28;20032;-96
2023/03/27 09:56:11;;;;;;;9.38;0.77;;;;;;;5.65;100.00;101728.91;10538839;28;20041;-85
2023/03/27 10:01:33;;;;;;;5.28;1.40;;;;;;;5.99;100.00;101732.69;10576381;28;20299;-93
2023/03/27 10:06:58;;;;;;;3.05;0.73;;;;;;;6.23;100.00;101729.44;10580618;28;20035;-91
2023/03/27 10:12:03;;;;;;;4.25;0.75;;;;;;;6.73;100.00;101751.06;10593544;28;20106;-92
2023/03/27 10:17:03;;;;;;;17.50;1.88;;;;;;;6.31;100.00;101694.78;10583079;28;20062;-91
2023/03/27 10:22:30;;;;;;;3.78;0.90;;;;;;;6.23;100.00;101739.56;10598814;28;20042;-91
2023/03/27 10:27:33;;;;;;;7.00;1.30;;;;;;;6.37;100.00;101696.69;10533207;28;20027;-86
2023/03/27 10:32:44;;;;;;;6.03;1.73;;;;;;;5.97;100.00;101719.22;10517472;28;20212;-91
2023/03/27 10:37:44;;;;;;;3.28;0.68;;;;;;;6.65;100.00;101754.81;10550054;28;20058;-92
2023/03/27 10:42:45;;;;;;;4.72;0.43;;;;;;;7.40;100.00;101741.00;10563869;28;20048;-93
2023/03/27 10:47:47;;;;;;;5.18;0.70;;;;;;;7.29;100.00;101758.06;10553450;28;20496;-92
2023/03/27 10:52:51;;;;;;;4.53;0.93;;;;;;;6.92;100.00;101765.81;10552564;28;20391;-92
2023/03/27 10:57:54;;;;;;;5.15;0.70;;;;;;;6.16;100.00;101794.22;10570415;28;20081;-92
2023/03/27 11:03:08;;;;;;;5.65;0.90;;;;;;;6.40;100.00;101789.25;10568324;27;20050;-91
2023/03/27 11:08:18;;;;;;;18.45;2.72;;;;;;;7.43;100.00;101778.91;10583795;28;20031;-93
2023/03/27 11:13:29;;;;;;;4.03;1.08;;;;;;;6.55;100.00;101789.09;10584249;27;20036;-92
2023/03/27 11:18:38;;;;;;;10.50;0.80;;;;;;;5.72;100.00;101795.38;10588200;27;20122;-95
2023/03/27 11:23:41;;;;;;;3.97;0.90;;;;;;;6.59;100.00;101783.00;10569885;27;20069;-93
2023/03/27 11:28:50;;;;;;;5.15;1.05;;;;;;;6.95;100.00;101715.31;10591543;27;20047;-92
2023/03/27 11:33:55;;;;;;;6.78;0.88;;;;;;;7.07;98.46;101757.44;10538843;27;20403;-88
2023/03/27 11:39:18;;;;;;;4.50;1.15;;;;;;;6.91;92.58;101752.38;10567814;27;20064;-92
2023/03/27 11:44:19;;;;;;;5.35;1.00;;;;;;;7.85;97.00;101782.25;10584756;27;20120;-89
2023/03/27 11:49:41;;;;;;;6.10;1.20;;;;;;;8.44;95.07;101796.03;10585129;27;20093;-78
2023/03/27 11:54:48;;;;;;;10.60;1.10;;;;;;;6.89;100.00;101837.44;10583465;27;20546;-89
2023/03/27 12:00:10;;;;;;;7.35;0.80;;;;;;;7.00;100.00;101828.59;10584795;27;20076;-91
2023/03/27 12:05:27;;;;;;;5.05;0.88;;;;;;;8.03;100.00;101811.72;10584608;27;20032;-93
2023/03/27 12:10:28;;;;;;;;;;;;;;;7.92;100.00;101830.72;10567762;27;20036;-95
2023/03/27 12:15:47;;;;;;;7.07;1.20;;;;;;;7.75;99.28;101813.88;10583783;27;19940;-88
2023/03/27 12:21:12;;;;;;;7.72;0.93;;;;;;;7.81;100.00;101813.91;10584587;27;20051;-92
2023/03/27 12:26:15;;;;;;;6.75;0.77;;;;;;;8.51;91.07;101812.47;10584758;27;20051;-95
2023/03/27 12:31:51;;;;;;;6.85;0.85;;;;;;;8.08;91.59;101824.78;10589419;27;20039;-95
2023/03/27 12:36:52;;;;;;;2.42;0.80;;;;;;;8.98;87.27;101808.41;10494531;28;20092;-94
2023/03/27 12:41:52;;;;;;;7.20;0.93;;;;;;;10.19;86.38;101794.44;10511238;28;20036;-96
2023/03/27 12:47:12;;;;;;;5.45;0.88;;;;;;;9.48;84.67;101826.88;10543321;28;20070;-96
2023/03/27 12:52:12;;;;;;;5.90;0.98;;;;;;;7.68;92.19;101868.72;10528920;28;20055;-96
2023/03/27 12:57:14;;;;;;;3.42;0.90;;;;;;;8.99;94.43;101853.19;10529693;28;20474;-96
2023/03/27 13:02:33;;;;;;;8.57;0.80;;;;;;;8.24;87.70;101870.13;10530443;28;20040;-96
2023/03/27 13:07:56;;;;;;;8.45;0.98;;;;;;;9.08;86.18;101839.00;10550473;28;20032;-96
2023/03/27 13:13:24;;;;;;;4.88;0.70;;;;;;;9.81;87.08;101867.84;10539889;28;20044;-96
2023/03/27 13:19:02;;;;;;;4.80;0.77;;;;;;;9.97;83.12;101838.91;10552504;28;20052;-94
2023/03/27 13:24:30;;;;;;;6.80;0.90;;;;;;;11.18;80.42;101832.78;10506828;28;20480;-90
2023/03/27 13:29:32;;;;;;;6.80;0.80;;;;;;;10.73;79.98;101850.59;10568535;28;20065;-94
2023/03/27 13:34:40;;;;;;;5.70;1.02;;;;;;;9.30;85.17;101868.84;10588565;28;20036;-93
2023/03/27 13:39:47;;;;;;;7.05;0.93;;;;;;;9.63;81.25;101865.03;10569484;27;20047;-96
2023/03/27 13:44:53;;;;;;;;;;;;;;;10.03;86.00;101881.19;10601937;27;20045;-92
2023/03/27 13:50:12;;;;;;;7.10;0.98;;;;;;;9.19;89.00;101897.88;10606125;28;19943;-96
2023/03/27 13:55:33;;;;;;;5.18;1.15;;;;;;;9.88;85.11;101868.63;10619572;28;20043;-94
2023/03/27 14:01:00;;;;;;;7.43;0.95;;;;;;;8.76;83.73;101878.44;10573314;28;20035;-96
2023/03/27 14:06:26;;;;;;;5.63;0.82;;;;;;;9.62;84.09;101877.09;10603568;28;20043;-85
2023/03/27 14:11:54;;;;;;;8.05;1.25;;;;;;;9.37;78.88;101841.34;10611712;27;20043;-95
2023/03/27 14:17:02;;;;;;;2.88;0.70;;;;;;;9.59;80.51;101875.66;10610449;27;20031;-96
2023/03/27 14:22:06;;;;;;;3.60;0.93;;;;;;;9.08;78.46;101888.44;10570658;28;20043;-95
2023/03/27 14:27:10;;;;;;;9.73;1.48;;;;;;;9.08;78.43;101879.34;10582186;27;20061;-95
2023/03/27 14:32:13;;;;;;;4.28;1.30;;;;;;;9.96;76.24;101864.72;10585335;27;20024;-95
2023/03/27 14:37:38;;;;;;;5.25;1.00;;;;;;;10.57;77.74;101887.03;10574247;28;20043;-95
2023/03/27 14:42:38;;;;;;;2.22;0.82;;;;;;;11.51;74.79;101891.03;10564388;28;20063;-93
2023/03/27 14:47:38;;;;;;;8.48;0.82;;;;;;;11.38;73.45;101871.09;10507131;28;20040;-82
2023/03/27 14:52:39;;;;;;;5.05;0.85;;;;;;;9.71;72.92;101886.75;10524541;28;20048;-93
2023/03/27 14:57:40;;;;;;;4.65;0.60;;;;;;;8.12;78.67;101913.81;10556061;28;20048;-95
2023/03/27 15:02:40;;;;;;;8.32;1.15;;;;;;;7.81;82.98;101923.56;10543662;28;20044;-96
2023/03/27 15:07:43;;;;;;;6.18;1.00;;;;;;;9.55;84.36;101914.78;10540014;28;20044;-95
2023/03/27 15:12:46;;;;;;;6.60;1.27;;;;;;;10.18;83.48;101933.97;10523288;28;20032;-95
2023/03/27 15:17:48;;;;;;;3.75;1.10;;;;;;;10.53;87.06;101952.72;10521968;28;20060;-94
2023/03/27 15:22:58;;;;;;;4.95;1.50;;;;;;;10.47;82.24;101935.19;10521387;28;20039;-95
2023/03/27 15:27:59;;;;;;;3.97;0.75;;;;;;;9.70;81.99;101937.31;10537875;28;20404;-96
2023/03/27 15:33:03;;;;;;;4.95;0.70;;;;;;;10.42;83.67;101967.25;10520183;28;20024;-94
2023/03/27 15:38:04;;;;;;;9.45;2.72;;;;;;;10.12;81.20;101956.88;10595022;27;20126;-96
2023/03/27 15:43:11;;;;;;;3.97;0.80;;;;;;;10.54;84.27;101976.41;10602696;27;20050;-95
2023/03/27 15:48:16;;;;;;;3.33;0.65;;;;;;;10.12;81.64;101973.38;10601923;28;20050;-95
2023/03/27 15:53:36;;;;;;;8.05;0.80;;;;;;;8.00;86.13;101995.06;10588598;27;20034;-95
2023/03/27 15:58:57;;;;;;;10.90;0.85;;;;;;;8.23;89.63;102003.72;10572916;27;20072;-94
2023/03/27 16:04:07;;;;;;;3.25;0.57;;;;;;;8.68;93.15;102005.81;10503152;28;20039;-96
2023/03/27 16:09:32;;;;;;;5.68;1.10;;;;;;;9.02;89.45;101987.38;10486446;28;20035;-96
2023/03/27 16:14:46;;;;;;;6.32;0.90;;;;;;;7.61;90.29;101993.97;10585261;28;20032;-93
2023/03/27 16:19:48;;;;;;;8.82;1.00;;;;;;;6.59;91.84;102007.38;10567283;27;20051;-96
2023/03/27 16:24:49;;;;;;;4.53;0.80;;;;;;;6.13;100.00;102053.50;10580723;27;20042;-94
2023/03/27 16:29:50;;;;;;;5.10;1.25;;;;;;;5.11;100.00;102054.41;10565252;28;20051;-93
2023/03/27 16:34:51;;;;;;;8.43;1.67;;;;;;;4.02;100.00;102073.88;10573958;27;20053;-95
2023/03/27 16:39:53;;;;;;;10.45;1.10;;;;;;;3.94;100.00;102090.25;10585037;27;20046;-94
2023/03/27 16:44:53;;;;;;;15.73;3.05;;;;;;;4.05;100.00;102087.09;10575475;27;20044;-92
2023/03/27 16:49:54;;;;;;;15.35;1.48;;;;;;;4.22;100.00;102082.41;10585610;27;20036;-92
2023/03/27 16:54:54;;;;;;;6.75;1.40;;;;;;;4.00;100.00;102005.06;10583070;27;20081;-93
2023/03/27 16:59:55;;;;;;;11.88;1.88;;;;;;;4.55;100.00;102101.22;10580935;28;20057;-94
2023/03/27 17:04:55;;;;;;;5.45;1.90;;;;;;;4.45;100.00;102076.94;10563038;27;20043;-94
2023/03/27 17:09:56;;;;;;;11.52;1.40;;;;;;;4.40;100.00;102079.34;10565601;27;20080;-91
2023/03/27 17:14:56;;;;;;;10.40;1.92;;;;;;;4.27;100.00;102076.41;10577552;27;20038;-96
2023/03/27 17:20:06;;;;;;;12.50;1.67;;;;;;;4.17;100.00;102080.19;10556225;27;20102;-94
2023/03/27 17:25:08;;;;;;;7.68;2.00;;;;;;;4.11;100.00;102088.28;10600401;28;20046;-94
2023/03/27 17:30:11;;;;;;;11.63;2.92;;;;;;;4.10;100.00;102103.78;10592246;27;20043;-92
2023/03/27 17:35:13;;;;;;;11.70;3.38;;;;;;;3.91;100.00;102082.47;10582640;27;20039;-86
2023/03/27 17:40:14;;;;;;;17.75;2.80;;;;;;;3.92;100.00;102087.72;10575969;28;20031;-95
2023/03/27 17:45:15;;;;;;;15.38;2.38;;;;;;;3.99;100.00;102112.34;10596322;27;20035;-93
2023/03/27 17:50:16;;;;;;;8.90;2.03;;;;;;;3.85;100.00;102116.72;10403739;22;20092;-77
2023/03/27 17:55:16;;;;;;;10.65;2.30;;;;;;;3.69;100.00;102128.53;10390682;28;20108;-77
2023/03/27 18:00:18;;;;;;;13.02;2.40;;;;;;;3.54;100.00;102135.78;10355282;28;20026;-78
2023/03/27 18:05:19;;;;;;;12.65;4.28;;;;;;;3.49;100.00;102132.72;10323752;28;20640;-77
2023/03/27 18:10:19;;;;;;;14.13;2.25;;;;;;;3.39;100.00;102132.91;10372943;28;20034;-78
2023/03/27 18:15:20;;;;;;;18.58;3.55;;;;;;;3.35;100.00;102132.44;10370388;28;20465;-78
2023/03/27 18:20:20;;;;;;;11.85;2.85;;;;;;;3.32;100.00;102134.66;10339558;28;20343;-76
2023/03/27 18:25:21;;;;;;;18.20;2.70;;;;;;;3.25;100.00;102136.41;10373943;28;20057;-70
2023/03/27 18:30:22;;;;;;;19.02;3.40;;;;;;;3.21;100.00;102135.91;10388709;28;20053;-80
2023/03/27 18:35:23;;;;;;;16.52;3.28;;;;;;;3.23;100.00;102142.00;10355553;28;20070;-78
2023/03/27 18:40:24;;;;;;;14.18;2.22;;;;;;;3.16;100.00;102132.84;10372009;28;20037;-77
2023/03/27 18:45:25;;;;;;;19.20;3.08;;;;;;;3.12;100.00;102142.38;10388399;28;20034;-79
2023/03/27 18:50:25;;;;;;;14.80;3.35;;;;;;;3.09;100.00;102149.00;10355638;28;20038;-78
2023/03/27 18:55:26;;;;;;;11.00;2.30;;;;;;;3.09;100.00;102153.63;10374944;28;20048;-78
2023/03/27 19:00:26;;;;;;;8.55;2.13;;;;;;;2.96;100.00;102159.59;10346449;28;20042;-78
2023/03/27 19:05:27;;;;;;;30.15;4.80;;;;;;;2.84;100.00;102150.94;10395278;28;20482;-79
2023/03/27 19:10:27;;;;;;;11.75;2.47;;;;;;;2.88;100.00;102156.88;10395867;28;20038;-78
2023/03/27 19:15:29;;;;;;;13.88;2.08;;;;;;;2.91;100.00;102165.53;10378854;28;20105;-74
2023/03/27 19:20:29;;;;;;;9.68;2.90;;;;;;;3.09;100.00;102187.09;10395904;28;20069;-70
2023/03/27 19:25:32;;;;;;;8.77;2.10;;;;;;;3.15;100.00;102191.00;10380012;28;20037;-79
2023/03/27 19:30:33;;;;;;;14.35;3.58;;;;;;;3.08;100.00;102192.72;10378025;28;20034;-78
2023/03/27 19:35:33;;;;;;;18.35;2.88;;;;;;;3.01;100.00;102190.69;10361165;28;20061;-81
2023/03/27 19:40:34;;;;;;;14.77;2.63;;;;;;;2.97;100.00;102186.59;10378123;28;20034;-79
2023/03/27 19:45:34;;;;;;;11.43;2.30;;;;;;;2.93;100.00;102198.84;10348762;28;20049;-80
2023/03/27 19:50:35;;;;;;;17.73;2.30;;;;;;;2.87;100.00;102204.97;10377776;28;20038;-78
2023/03/27 19:55:36;;;;;;;19.85;2.85;;;;;;;2.71;100.00;102186.81;10392512;28;20046;-79
2023/03/27 20:00:37;;;;;;;18.13;3.47;;;;;;;2.65;100.00;102189.34;10374280;28;20046;-80
2023/03/27 20:05:43;;;;;;;14.85;2.05;;;;;;;2.63;100.00;102193.09;10390417;28;20030;-80
2023/03/27 20:10:44;;;;;;;18.25;3.58;;;;;;;2.61;100.00;102197.84;10357255;28;20046;-79
2023/03/27 20:15:49;;;;;;;15.00;1.95;;;;;;;2.57;100.00;102207.34;10373773;28;20115;-78
2023/03/27 20:20:50;;;;;;;10.20;1.90;;;;;;;2.55;100.00;102214.84;10359089;28;20088;-78
2023/03/27 20:25:50;;;;;;;11.50;2.13;;;;;;;2.57;100.00;102218.22;10375720;28;20126;-79
2023/03/27 20:30:51;;;;;;;9.50;2.03;;;;;;;2.69;100.00;102218.75;10357659;28;20076;-81
2023/03/27 20:35:51;;;;;;;12.25;1.90;;;;;;;2.84;100.00;102248.84;10357460;28;20129;-81
2023/03/27 20:40:53;;;;;;;8.00;1.38;;;;;;;2.76;100.00;102235.25;10373289;28;20034;-79
2023/03/27 20:45:57;;;;;;;8.55;1.80;;;;;;;2.49;100.00;102217.38;10389121;28;20034;-78
2023/03/27 20:51:01;;;;;;;7.00;1.30;;;;;;;2.46;100.00;102245.75;10370429;28;20041;-78
2023/03/27 20:56:03;;;;;;;12.27;2.08;;;;;;;2.25;100.00;102229.03;10388087;28;20124;-78
2023/03/27 21:01:05;;;;;;;7.72;1.67;;;;;;;2.13;100.00;102229.38;10340256;28;20034;-78
2023/03/27 21:06:07;;;;;;;12.02;2.28;;;;;;;2.02;100.00;102226.94;10329689;28;20042;-79
2023/03/27 21:11:07;;;;;;;12.85;2.25;;;;;;;2.03;100.00;102242.25;10341935;28;20061;-78
2023/03/27 21:16:08;;;;;;;15.88;3.15;;;;;;;2.03;100.00;102234.09;10363013;28;20122;-80
2023/03/27 21:21:08;;;;;;;11.98;2.97;;;;;;;2.19;100.00;102241.41;10363036;28;20046;-78
2023/03/27 21:26:09;;;;;;;10.70;1.88;;;;;;;2.11;100.00;102214.22;10383382;28;20065;-78
2023/03/27 21:31:10;;;;;;;15.82;2.60;;;;;;;2.33;100.00;102245.38;10381473;28;20097;-79
2023/03/27 21:36:11;;;;;;;13.30;2.35;;;;;;;2.50;100.00;102244.41;10340510;28;20049;-79
2023/03/27 21:41:12;;;;;;;15.25;3.15;;;;;;;2.40;100.00;102241.84;10387196;28;20034;-78
2023/03/27 21:46:14;;;;;;;14.32;2.50;;;;;;;2.30;100.00;102248.44;10371750;28;20054;-78
2023/03/27 21:51:14;;;;;;;17.95;3.28;;;;;;;2.25;100.00;102269.81;10388712;28;20034;-78
2023/03/27 21:56:15;;;;;;;18.88;2.08;;;;;;;2.21;100.00;102262.00;10372286;28;20038;-77
2023/03/27 22:01:15;;;;;;;12.15;3.47;;;;;;;2.13;100.00;102251.09;10370674;28;20057;-77
2023/03/27 22:06:16;;;;;;;16.75;2.80;;;;;;;2.12;100.00;102260.25;10371913;28;20636;-78
2023/03/27 22:11:16;;;;;;;11.65;2.65;;;;;;;2.08;100.00;102266.19;10387975;28;20078;-78
2023/03/27 22:16:17;;;;;;;14.40;4.90;;;;;;;2.06;100.00;102270.94;10389162;28;20106;-78
2023/03/27 22:21:22;;;;;;;10.68;1.60;;;;;;;1.95;100.00;102258.50;10387438;28;20049;-78
2023/03/27 22:26:31;;;;;;;15.75;2.88;;;;;;;1.93;100.00;102271.41;10354370;28;20037;-78
2023/03/27 22:31:31;;;;;;;11.90;2.30;;;;;;;2.07;100.00;102288.91;10375955;28;20041;-78
2023/03/27 22:36:32;;;;;;;12.35;3.67;;;;;;;2.13;100.00;102288.28;10378250;28;20363;-77
2023/03/27 22:41:32;;;;;;;7.45;1.92;;;;;;;2.14;100.00;102293.53;10378684;28;20034;-78
2023/03/27 22:46:33;;;;;;;13.93;2.53;;;;;;;2.24;100.00;102303.44;10359853;28;20046;-78
2023/03/27 22:51:33;;;;;;;10.48;2.30;;;;;;;2.33;100.00;102297.00;10404270;28;20493;-78
2023/03/27 22:56:34;;;;;;;13.68;2.38;;;;;;;2.42;100.00;102304.19;10337478;28;20045;-78
2023/03/27 23:01:34;;;;;;;9.65;2.90;;;;;;;2.27;100.00;102284.06;10343998;28;20072;-78
2023/03/27 23:06:35;;;;;;;6.35;1.77;;;;;;;2.30;100.00;102302.78;10360634;28;20065;-77
2023/03/27 23:11:35;;;;;;;19.45;3.05;;;;;;;2.17;100.00;102306.81;10377627;28;20042;-78
2023/03/27 23:16:36;;;;;;;19.20;2.80;;;;;;;2.00;100.00;102313.19;10411424;28;20061;-78
2023/03/27 23:21:36;;;;;;;16.38;2.25;;;;;;;1.96;100.00;102303.66;10392536;28;20044;-79